Time;durP1;ratioP1;P1;durP2;ratioP2;P2;SDS_P1;SDS_P2;PMS_P1;PMS_P2;Temp;Humidity;BMP_temperature;BMP_pressure;BME280_temperature;BME280_humidity;BME280_pressure;Samples;Min_cycle;Max_cycle;Signal;HPM_P1;HPM_P2
2022/12/11 00:48:41;;;;;;;4.70;2.47;;;5.80;99.90;;;;;;5074836;27;2265478;-91
2022/12/11 00:51:12;;;;;;;1.83;1.20;;;5.80;99.90;;;;;;5140015;28;20205;-90
2022/12/11 00:53:43;;;;;;;2.87;2.17;;;5.80;99.90;;;;;;5136356;28;20287;-88
2022/12/11 00:56:16;;;;;;;2.83;1.40;;;5.80;99.90;;;;;;5139064;28;20213;-89
2022/12/11 00:58:47;;;;;;;3.10;1.50;;;5.80;99.90;;;;;;5138786;28;20201;-89
2022/12/11 01:01:22;;;;;;;3.33;1.93;;;5.80;99.90;;;;;;5137242;28;20265;-89
2022/12/11 01:03:55;;;;;;;1.70;1.43;;;5.90;99.90;;;;;;5136463;28;20202;-89
2022/12/11 01:06:28;;;;;;;2.43;1.73;;;5.90;99.90;;;;;;5137052;28;20261;-89
2022/12/11 01:11:47;;;;;;;2.63;1.80;;;5.80;99.90;;;;;;5139215;28;20244;-89
2022/12/11 01:14:18;;;;;;;3.57;1.53;;;5.80;99.90;;;;;;5135393;28;20227;-89
2022/12/11 01:16:49;;;;;;;3.03;1.97;;;5.80;99.90;;;;;;5138676;28;20209;-89
2022/12/11 01:19:22;;;;;;;2.60;1.60;;;5.90;99.90;;;;;;5138300;28;20661;-89
2022/12/11 01:21:52;;;;;;;3.27;1.47;;;5.90;99.90;;;;;;5137643;28;20206;-89
2022/12/11 01:24:24;;;;;;;3.93;2.00;;;5.90;99.90;;;;;;5135775;28;20311;-89
2022/12/11 01:26:54;;;;;;;3.53;1.87;;;5.90;99.90;;;;;;5136947;28;20286;-89
2022/12/11 01:29:25;;;;;;;5.37;2.93;;;5.90;99.90;;;;;;5136896;28;20206;-89
2022/12/11 01:31:56;;;;;;;2.90;1.80;;;5.90;99.90;;;;;;5143263;28;20265;-89
2022/12/11 01:34:30;;;;;;;2.13;1.53;;;5.90;99.90;;;;;;5143613;28;20206;-89
2022/12/11 01:37:02;;;;;;;3.50;1.27;;;5.90;99.90;;;;;;5205250;22;20242;-88
2022/12/11 01:39:33;;;;;;;3.27;1.30;;;5.90;99.90;;;;;;5079437;28;20219;-88
2022/12/11 01:42:09;;;;;;;1.33;1.23;;;5.80;99.90;;;;;;5082022;28;20204;-88
2022/12/11 01:45:25;;;;;;;2.00;1.80;;;5.70;99.90;;;;;;5082128;28;20207;-88
2022/12/11 01:48:01;;;;;;;1.87;1.17;;;5.80;99.90;;;;;;5045581;28;20250;-87
2022/12/11 01:50:39;;;;;;;1.60;1.13;;;5.80;99.90;;;;;;5084104;28;20207;-88
2022/12/11 01:53:15;;;;;;;1.30;0.97;;;5.90;99.90;;;;;;5081142;28;20203;-88
2022/12/11 01:55:48;;;;;;;3.73;1.57;;;5.90;99.90;;;;;;5083059;28;20656;-88
2022/12/11 01:58:21;;;;;;;2.67;1.50;;;5.80;99.90;;;;;;5075951;28;20598;-88
2022/12/11 02:00:54;;;;;;;1.53;1.23;;;5.80;99.90;;;;;;5065835;28;20215;-88
2022/12/11 02:03:27;;;;;;;3.70;1.70;;;5.80;99.90;;;;;;5066875;28;20200;-89
2022/12/11 02:06:04;;;;;;;2.30;1.30;;;5.80;99.90;;;;;;5068673;28;20238;-88
2022/12/11 02:08:35;;;;;;;1.23;1.13;;;5.80;99.90;;;;;;5069734;28;20224;-89
2022/12/11 02:11:13;;;;;;;1.80;1.03;;;5.80;99.90;;;;;;5071155;28;20212;-89
2022/12/11 02:13:51;;;;;;;2.33;1.20;;;5.90;99.90;;;;;;5066523;28;20225;-89
2022/12/11 02:16:26;;;;;;;2.57;1.40;;;5.90;99.90;;;;;;5064209;28;20212;-88
2022/12/11 02:19:04;;;;;;;2.50;1.57;;;5.80;99.90;;;;;;5078799;28;20233;-88
2022/12/11 02:21:42;;;;;;;2.60;1.60;;;5.90;99.90;;;;;;5079011;28;20204;-88
2022/12/11 02:27:13;;;;;;;2.57;1.87;;;5.90;99.90;;;;;;5037998;28;20441;-89
2022/12/11 02:29:53;;;;;;;2.90;1.97;;;5.90;99.90;;;;;;5029710;28;20286;-89
2022/12/11 02:32:26;;;;;;;2.73;2.10;;;5.90;99.90;;;;;;5025579;28;20219;-89
2022/12/11 02:35:03;;;;;;;4.57;1.97;;;5.90;99.90;;;;;;5021461;28;20217;-89
2022/12/11 02:37:37;;;;;;;1.53;1.43;;;5.90;99.90;;;;;;5022284;28;20221;-90
2022/12/11 02:40:13;;;;;;;2.40;1.60;;;5.90;99.90;;;;;;5023716;28;20218;-89
2022/12/11 02:42:47;;;;;;;1.57;1.33;;;5.90;99.90;;;;;;5021216;28;20206;-88
2022/12/11 02:45:22;;;;;;;2.33;1.60;;;5.90;99.90;;;;;;5022096;28;20211;-89
2022/12/11 02:47:56;;;;;;;2.10;1.90;;;6.00;99.90;;;;;;5027664;28;20240;-89
2022/12/11 02:50:28;;;;;;;2.70;2.20;;;6.00;99.90;;;;;;5040925;28;20209;-89
2022/12/11 02:53:03;;;;;;;2.80;2.10;;;6.00;99.90;;;;;;5043922;28;20205;-89
2022/12/11 02:55:39;;;;;;;2.47;2.03;;;6.00;99.90;;;;;;5042741;28;20219;-88
2022/12/11 02:58:17;;;;;;;5.70;2.50;;;5.90;99.90;;;;;;5046679;28;20218;-89
2022/12/11 03:00:52;;;;;;;2.40;1.80;;;6.00;99.90;;;;;;5044649;28;20216;-88
2022/12/11 03:03:27;;;;;;;1.83;1.57;;;6.00;99.90;;;;;;5047747;28;20272;-89
2022/12/11 03:06:02;;;;;;;1.70;1.60;;;5.90;99.90;;;;;;5046988;28;20204;-89
2022/12/11 03:08:34;;;;;;;2.30;1.90;;;5.90;99.90;;;;;;5041505;28;20236;-88
2022/12/11 03:11:06;;;;;;;2.57;2.00;;;5.90;99.90;;;;;;5040438;28;20577;-89
2022/12/11 03:13:37;;;;;;;2.10;1.90;;;5.90;99.90;;;;;;5040119;28;20583;-90
2022/12/11 03:16:17;;;;;;;1.80;1.70;;;5.90;99.90;;;;;;5039720;28;20292;-89
2022/12/11 03:18:55;;;;;;;2.53;1.87;;;6.00;99.90;;;;;;5020396;28;20206;-88
2022/12/11 03:21:33;;;;;;;2.67;2.10;;;5.90;99.90;;;;;;5022418;28;20572;-88
2022/12/11 03:24:12;;;;;;;2.77;1.60;;;5.90;99.90;;;;;;5021017;28;20230;-88
2022/12/11 03:26:46;;;;;;;2.30;1.93;;;5.90;99.90;;;;;;5021848;28;20209;-89
2022/12/11 03:29:31;;;;;;;2.53;2.10;;;5.90;99.90;;;;;;5022637;28;20594;-89
2022/12/11 03:32:18;;;;;;;2.37;2.03;;;5.80;99.90;;;;;;5005827;28;20296;-88
2022/12/11 03:34:56;;;;;;;2.83;2.27;;;5.80;99.90;;;;;;5040994;28;20201;-88
2022/12/11 03:37:32;;;;;;;2.70;2.50;;;5.70;99.90;;;;;;5024800;28;20216;-89
2022/12/11 03:40:07;;;;;;;3.27;2.57;;;5.70;99.90;;;;;;5040412;28;20205;-89
2022/12/11 03:42:42;;;;;;;3.17;2.53;;;5.70;99.90;;;;;;5046055;28;20227;-88
2022/12/11 03:45:17;;;;;;;1.80;1.70;;;5.60;99.90;;;;;;5046541;28;20212;-89
2022/12/11 03:48:31;;;;;;;3.30;2.00;;;5.60;99.90;;;;;;5046093;28;20233;-88
2022/12/11 03:51:09;;;;;;;2.87;1.90;;;5.60;99.90;;;;;;5049043;28;20262;-89
2022/12/11 03:53:49;;;;;;;2.10;1.90;;;5.50;99.90;;;;;;5053482;28;20208;-89
2022/12/11 03:56:26;;;;;;;3.20;2.23;;;5.50;99.90;;;;;;5049656;28;20226;-89
2022/12/11 03:58:59;;;;;;;1.83;1.53;;;5.50;99.90;;;;;;5057420;28;20196;-90
2022/12/11 04:01:33;;;;;;;3.37;2.00;;;5.50;99.90;;;;;;5056839;28;20199;-89
2022/12/11 04:04:05;;;;;;;4.03;2.47;;;5.50;99.90;;;;;;5045342;28;20658;-89
2022/12/11 04:06:39;;;;;;;5.17;3.60;;;5.50;99.90;;;;;;5042047;28;20261;-88
2022/12/11 04:09:10;;;;;;;4.83;3.67;;;5.50;99.90;;;;;;5043242;28;20669;-88
2022/12/11 04:11:42;;;;;;;7.27;5.27;;;5.50;99.90;;;;;;5040123;28;20292;-88
2022/12/11 04:17:02;;;;;;;5.57;3.23;;;5.40;99.90;;;;;;5039000;28;20606;-89
2022/12/11 04:25:14;;;;;;;4.73;3.23;;;5.40;99.90;;;;;;5040361;28;20216;-88
2022/12/11 04:27:50;;;;;;;5.07;3.33;;;5.50;99.90;;;;;;5042771;28;20228;-88
2022/12/11 04:30:24;;;;;;;4.63;3.03;;;5.50;99.90;;;;;;5046412;28;20271;-88
2022/12/11 04:33:04;;;;;;;4.67;3.23;;;5.60;99.90;;;;;;5055458;28;20268;-89
2022/12/11 04:35:35;;;;;;;3.90;3.03;;;5.60;99.90;;;;;;5055840;28;20225;-89
2022/12/11 04:38:08;;;;;;;2.90;2.17;;;5.60;99.90;;;;;;5055954;28;20254;-88
2022/12/11 04:40:38;;;;;;;2.40;2.20;;;5.60;99.90;;;;;;5056991;28;20261;-89
2022/12/11 04:43:09;;;;;;;3.53;2.50;;;5.60;99.90;;;;;;5052663;28;20201;-88
2022/12/11 04:45:40;;;;;;;2.47;2.27;;;5.60;99.90;;;;;;5048367;28;20287;-88
2022/12/11 04:51:15;;;;;;;3.17;2.00;;;5.60;99.90;;;;;;5051467;28;20208;-89
2022/12/11 04:53:48;;;;;;;3.20;2.10;;;5.60;99.90;;;;;;5046963;28;20216;-89
2022/12/11 04:56:20;;;;;;;2.60;2.10;;;5.60;99.90;;;;;;5045818;28;20216;-89
2022/12/11 04:58:54;;;;;;;2.53;1.93;;;5.60;99.90;;;;;;5048531;28;20276;-89
2022/12/11 05:01:26;;;;;;;2.33;2.13;;;5.60;99.90;;;;;;5045788;28;20288;-89
2022/12/11 05:03:59;;;;;;;2.77;1.50;;;5.70;99.90;;;;;;5040827;28;20235;-88
2022/12/11 05:06:31;;;;;;;3.10;1.20;;;5.90;99.90;;;;;;5039693;28;20568;-88
2022/12/11 05:09:04;;;;;;;2.23;1.37;;;5.70;99.90;;;;;;5039086;28;20224;-89
2022/12/11 05:11:36;;;;;;;1.90;1.30;;;5.70;99.90;;;;;;5024129;28;20214;-88
2022/12/11 05:14:08;;;;;;;2.70;1.70;;;5.70;99.90;;;;;;5018816;28;20574;-88
2022/12/11 05:16:41;;;;;;;1.33;1.23;;;5.60;99.90;;;;;;5002916;28;20225;-88
2022/12/11 05:19:12;;;;;;;1.30;1.20;;;5.60;99.90;;;;;;5019644;28;20204;-88
2022/12/11 05:21:44;;;;;;;3.20;1.80;;;5.60;99.90;;;;;;5019001;28;20213;-88
2022/12/11 05:24:17;;;;;;;2.27;1.70;;;5.70;99.90;;;;;;5018231;28;20282;-89
2022/12/11 05:26:47;;;;;;;2.10;1.90;;;5.60;99.90;;;;;;5019218;28;20223;-88
2022/12/11 05:29:19;;;;;;;2.50;2.30;;;5.60;99.90;;;;;;5019162;28;20244;-88
2022/12/11 05:31:50;;;;;;;3.33;2.00;;;5.70;99.90;;;;;;5020254;28;20229;-87
2022/12/11 05:34:21;;;;;;;2.00;1.83;;;5.60;99.90;;;;;;5026293;28;20296;-88
2022/12/11 05:36:52;;;;;;;2.37;1.80;;;5.70;99.90;;;;;;5030515;28;20206;-88
2022/12/11 05:39:28;;;;;;;2.90;1.83;;;5.70;99.90;;;;;;5024433;28;20202;-89
2022/12/11 05:42:00;;;;;;;2.47;2.20;;;5.70;99.90;;;;;;5023232;28;20213;-88
2022/12/11 05:44:31;;;;;;;3.50;2.63;;;5.60;99.90;;;;;;5036706;28;20201;-88
2022/12/11 05:47:02;;;;;;;5.57;3.00;;;5.60;99.90;;;;;;5052163;28;20186;-87
2022/12/11 05:49:35;;;;;;;4.20;2.90;;;5.70;99.90;;;;;;5039121;28;20231;-87
2022/12/11 05:52:07;;;;;;;4.53;2.37;;;5.70;99.90;;;;;;5087849;22;20264;-89
2022/12/11 05:54:41;;;;;;;2.73;1.83;;;5.70;99.90;;;;;;5058228;28;20205;-88
2022/12/11 05:57:12;;;;;;;3.33;2.20;;;5.70;99.90;;;;;;5042678;28;20227;-89
2022/12/11 05:59:42;;;;;;;5.20;2.13;;;5.70;99.90;;;;;;5059190;28;20257;-90
2022/12/11 06:02:13;;;;;;;4.80;2.53;;;5.70;99.90;;;;;;5051199;28;20215;-89
2022/12/11 06:04:45;;;;;;;6.87;2.70;;;5.70;99.90;;;;;;5044140;28;20240;-88
2022/12/11 06:07:15;;;;;;;4.47;2.50;;;5.70;99.90;;;;;;5044503;28;20201;-87
2022/12/11 06:09:48;;;;;;;3.97;2.70;;;5.70;99.90;;;;;;5044229;28;20304;-88
2022/12/11 06:12:20;;;;;;;5.57;2.87;;;5.70;99.90;;;;;;5043982;28;20572;-89
2022/12/11 06:14:53;;;;;;;3.97;2.70;;;5.60;99.90;;;;;;5045202;28;20219;-89
2022/12/11 06:17:24;;;;;;;3.30;2.10;;;5.70;99.90;;;;;;5052286;28;20294;-88
2022/12/11 06:19:54;;;;;;;2.67;2.27;;;5.70;99.90;;;;;;5063951;28;20204;-88
2022/12/11 06:22:25;;;;;;;3.03;2.20;;;5.70;99.90;;;;;;5063267;28;20226;-90
2022/12/11 06:24:58;;;;;;;2.97;2.00;;;5.70;99.90;;;;;;5043347;28;20219;-86
2022/12/11 06:27:30;;;;;;;4.47;2.47;;;5.70;99.90;;;;;;5043229;28;20223;-88
2022/12/11 06:30:01;;;;;;;3.13;2.47;;;5.70;99.90;;;;;;5043143;28;20239;-90
2022/12/11 06:32:33;;;;;;;4.47;2.93;;;5.70;99.90;;;;;;5042351;28;20207;-90
2022/12/11 06:35:03;;;;;;;4.23;3.00;;;5.70;99.90;;;;;;5042204;28;20212;-89
2022/12/11 06:37:36;;;;;;;3.07;2.77;;;5.70;99.90;;;;;;5041735;28;20216;-89
2022/12/11 06:40:12;;;;;;;4.63;2.73;;;5.70;99.90;;;;;;5044047;28;20189;-89
2022/12/11 06:42:42;;;;;;;4.60;2.80;;;5.70;99.90;;;;;;5041632;28;20209;-89
2022/12/11 06:45:13;;;;;;;4.73;3.20;;;5.70;99.90;;;;;;5051034;28;20204;-89
2022/12/11 06:47:45;;;;;;;4.00;2.87;;;5.70;99.90;;;;;;5056452;28;20308;-90
2022/12/11 06:50:17;;;;;;;3.03;2.67;;;5.70;99.90;;;;;;5058106;28;20217;-89
2022/12/11 06:52:50;;;;;;;3.53;2.60;;;5.60;99.90;;;;;;5057808;28;20206;-87
2022/12/11 06:55:26;;;;;;;4.27;2.30;;;5.60;99.90;;;;;;5058021;28;20197;-88
2022/12/11 06:57:57;;;;;;;6.73;2.37;;;5.60;99.90;;;;;;5055962;28;20275;-87
2022/12/11 07:00:29;;;;;;;6.60;2.43;;;5.60;99.90;;;;;;5024447;28;20208;-88
2022/12/11 07:03:00;;;;;;;5.93;2.23;;;5.70;99.90;;;;;;5011336;28;20206;-88
2022/12/11 07:05:33;;;;;;;4.00;2.20;;;5.70;99.90;;;;;;5024507;28;20216;-88
2022/12/11 07:08:06;;;;;;;2.20;2.00;;;5.60;99.90;;;;;;5025071;28;20218;-87
2022/12/11 07:10:40;;;;;;;2.00;1.83;;;5.60;99.90;;;;;;5024826;28;20234;-88
2022/12/11 07:13:11;;;;;;;4.97;2.20;;;5.60;99.90;;;;;;5020932;28;20224;-88
2022/12/11 07:15:42;;;;;;;2.53;2.30;;;5.60;99.90;;;;;;5025913;28;20213;-88
2022/12/11 07:18:12;;;;;;;4.03;2.40;;;5.60;99.90;;;;;;5022939;28;20209;-87
2022/12/11 07:20:43;;;;;;;2.80;2.40;;;5.60;99.90;;;;;;5041300;28;20211;-88
2022/12/11 07:23:14;;;;;;;4.77;2.80;;;5.50;99.90;;;;;;5047093;28;20216;-88
2022/12/11 07:25:47;;;;;;;3.43;2.67;;;5.50;99.90;;;;;;5048960;28;20216;-89
2022/12/11 07:28:19;;;;;;;2.97;2.50;;;5.50;99.90;;;;;;5042114;28;20213;-89
2022/12/11 07:30:50;;;;;;;4.40;2.43;;;5.50;99.90;;;;;;5050195;28;20340;-88
2022/12/11 07:33:21;;;;;;;2.80;2.30;;;5.50;99.90;;;;;;5047621;28;20213;-89
2022/12/11 07:35:52;;;;;;;2.87;2.03;;;5.50;99.90;;;;;;5041528;28;20205;-89
2022/12/11 07:38:23;;;;;;;2.07;1.87;;;5.50;99.90;;;;;;5043645;28;20222;-89
2022/12/11 07:40:56;;;;;;;2.40;2.00;;;5.50;99.90;;;;;;5044263;28;20201;-88
2022/12/11 07:43:27;;;;;;;1.70;1.60;;;5.50;99.90;;;;;;5039826;28;20215;-88
2022/12/11 07:46:02;;;;;;;1.90;1.70;;;5.50;99.90;;;;;;5040241;28;20205;-88
2022/12/11 07:48:36;;;;;;;3.10;2.40;;;5.50;99.90;;;;;;5043069;28;20219;-88
2022/12/11 07:51:13;;;;;;;3.47;1.57;;;5.50;99.90;;;;;;5040325;28;20240;-87
2022/12/11 07:53:45;;;;;;;3.30;1.60;;;5.50;99.90;;;;;;5039643;28;20291;-89
2022/12/11 07:56:18;;;;;;;1.90;1.70;;;5.40;99.90;;;;;;5041510;28;20206;-88
2022/12/11 07:58:49;;;;;;;2.57;1.73;;;5.40;99.90;;;;;;5041614;28;20216;-88
2022/12/11 08:01:22;;;;;;;4.50;1.80;;;5.30;99.90;;;;;;5041914;28;20216;-88
2022/12/11 08:03:55;;;;;;;1.80;1.70;;;5.30;99.90;;;;;;5029423;28;20692;-88
2022/12/11 08:06:28;;;;;;;2.90;1.60;;;5.30;99.90;;;;;;5023950;28;20208;-88
2022/12/11 08:09:00;;;;;;;1.60;1.50;;;5.20;99.90;;;;;;5020888;28;20688;-88
2022/12/11 08:11:34;;;;;;;2.00;1.80;;;5.20;99.90;;;;;;5019926;28;20233;-88
2022/12/11 08:14:07;;;;;;;1.77;1.50;;;5.20;99.90;;;;;;5045901;28;20196;-89
2022/12/11 08:16:41;;;;;;;2.07;1.70;;;5.10;99.90;;;;;;5061394;28;20248;-88
2022/12/11 08:19:13;;;;;;;1.60;1.50;;;5.20;99.90;;;;;;5059265;28;20201;-88
2022/12/11 08:21:45;;;;;;;1.87;1.47;;;5.10;99.90;;;;;;5061688;28;20201;-88
2022/12/11 08:24:19;;;;;;;2.20;1.60;;;5.10;99.90;;;;;;5060084;28;20204;-87
2022/12/11 08:26:52;;;;;;;2.80;1.87;;;5.10;99.90;;;;;;5058765;28;20203;-88
2022/12/11 08:29:24;;;;;;;2.63;1.70;;;5.10;99.90;;;;;;5067974;28;20207;-87
2022/12/11 08:31:57;;;;;;;2.10;1.73;;;5.00;99.90;;;;;;5065198;28;20228;-88
2022/12/11 08:34:28;;;;;;;1.43;1.30;;;5.00;99.90;;;;;;5059034;28;20222;-87
2022/12/11 08:36:59;;;;;;;2.70;1.30;;;5.00;99.90;;;;;;5059725;28;20198;-87
2022/12/11 08:39:32;;;;;;;1.63;1.40;;;5.00;99.90;;;;;;5059316;28;20294;-88
2022/12/11 08:42:06;;;;;;;2.70;1.40;;;4.90;99.90;;;;;;5059335;28;20208;-87
2022/12/11 08:44:38;;;;;;;1.30;1.20;;;5.00;99.90;;;;;;5059242;28;20203;-88
